Time;durP1;ratioP1;P1;durP2;ratioP2;P2;SDS_P1;SDS_P2;PMS_P1;PMS_P2;Temp;Humidity;BMP_temperature;BMP_pressure;BME280_temperature;BME280_humidity;BME280_pressure;Samples;Min_cycle;Max_cycle;Signal;HPM_P1;HPM_P2
2021/03/14 00:00:11;;;;;;;3.10;0.65;;;;;;;4.93;66.96;94569.50;5030697;28;20096;-49
2021/03/14 00:02:38;;;;;;;3.10;0.47;;;;;;;5.00;65.36;94572.44;5030919;28;20057;-48
2021/03/14 00:05:06;;;;;;;1.17;0.50;;;;;;;5.05;65.17;94574.94;5031059;28;20080;-51
2021/03/14 00:07:33;;;;;;;0.82;0.50;;;;;;;5.01;65.59;94586.66;5031019;28;20058;-47
2021/03/14 00:09:59;;;;;;;2.97;0.40;;;;;;;4.96;65.60;94597.56;5030329;28;20111;-50
2021/03/14 00:12:26;;;;;;;2.10;0.90;;;;;;;4.91;65.64;94611.97;5029673;28;20130;-49
2021/03/14 00:14:53;;;;;;;2.20;0.50;;;;;;;4.84;66.27;94601.78;5031773;28;20096;-47
2021/03/14 00:17:23;;;;;;;0.57;0.40;;;;;;;4.79;66.61;94609.22;5028554;28;20532;-48
2021/03/14 00:19:52;;;;;;;0.45;0.32;;;;;;;4.74;66.99;94617.44;5012336;28;20495;-47
2021/03/14 00:22:19;;;;;;;1.00;0.38;;;;;;;4.56;67.43;94600.72;5011094;28;20058;-47
2021/03/14 00:24:45;;;;;;;4.03;0.60;;;;;;;4.41;68.82;94604.75;5012108;28;20622;-44
2021/03/14 00:27:13;;;;;;;0.47;0.32;;;;;;;4.16;69.69;94604.59;5012084;28;20228;-46
2021/03/14 00:29:40;;;;;;;2.03;0.45;;;;;;;3.93;71.83;94612.09;5028226;28;20077;-47
2021/03/14 00:32:07;;;;;;;1.88;0.30;;;;;;;3.75;73.15;94605.25;5030696;28;20073;-47
2021/03/14 00:34:33;;;;;;;0.75;0.38;;;;;;;3.47;76.13;94627.03;5030062;28;20053;-46
2021/03/14 00:37:00;;;;;;;1.05;0.50;;;;;;;3.32;78.86;94614.19;5030058;28;20107;-48
2021/03/14 00:39:26;;;;;;;1.27;0.55;;;;;;;3.23;78.28;94616.88;5030271;28;20137;-48
2021/03/14 00:41:53;;;;;;;0.35;0.20;;;;;;;3.12;78.82;94623.66;5031046;28;20076;-49
2021/03/14 00:44:19;;;;;;;1.02;0.50;;;;;;;3.17;78.73;94625.38;5029567;28;20099;-47
2021/03/14 00:46:46;;;;;;;1.17;0.40;;;;;;;3.21;78.51;94640.47;5031078;28;20050;-48
2021/03/14 00:49:23;;;;;;;0.95;0.30;;;;;;;3.04;79.26;94651.94;5030350;28;20049;-50
2021/03/14 00:51:51;;;;;;;1.50;0.50;;;;;;;2.98;79.91;94641.75;5028109;28;20054;-46
2021/03/14 00:54:19;;;;;;;3.55;0.50;;;;;;;2.91;80.47;94631.53;5014635;28;20057;-48
2021/03/14 00:56:45;;;;;;;0.22;0.20;;;;;;;2.91;80.66;94644.09;5014675;28;20361;-47
2021/03/14 00:59:13;;;;;;;1.17;0.40;;;;;;;2.76;81.18;94642.69;5016069;28;20064;-51
2021/03/14 01:01:41;;;;;;;0.73;0.30;;;;;;;2.76;81.65;94648.81;5015793;28;20151;-48
2021/03/14 01:04:08;;;;;;;1.15;0.45;;;;;;;2.76;81.89;94642.69;5013290;28;20469;-48
2021/03/14 01:06:34;;;;;;;1.00;0.30;;;;;;;2.73;81.59;94635.28;5014636;28;20052;-47
2021/03/14 01:09:04;;;;;;;0.73;0.38;;;;;;;2.74;81.53;94636.88;5013967;28;20074;-44
2021/03/14 01:11:32;;;;;;;0.30;0.20;;;;;;;2.60;82.30;94641.56;5012290;28;20049;-50
2021/03/14 01:14:10;;;;;;;1.63;0.40;;;;;;;2.50;83.16;94634.66;5016220;28;20049;-48
2021/03/14 01:17:02;;;;;;;0.20;0.15;;;;;;;2.46;83.11;94642.50;5032592;28;20049;-47
2021/03/14 01:19:30;;;;;;;0.90;0.30;;;;;;;2.40;83.53;94643.75;5032310;28;20052;-46
2021/03/14 01:21:57;;;;;;;1.20;0.77;;;;;;;2.50;83.61;94640.78;5032934;28;20105;-46
2021/03/14 01:24:24;;;;;;;1.13;0.40;;;;;;;2.40;84.31;94643.75;5033477;28;20418;-47
2021/03/14 01:26:51;;;;;;;1.58;0.40;;;;;;;2.29;84.40;94632.59;5033501;28;20542;-47
2021/03/14 01:29:18;;;;;;;4.13;1.48;;;;;;;2.29;84.99;94627.25;5033184;28;20454;-51
2021/03/14 01:31:44;;;;;;;1.35;0.38;;;;;;;2.25;84.94;94620.19;5031713;28;20084;-48
2021/03/14 01:34:12;;;;;;;0.80;0.20;;;;;;;2.12;85.95;94631.78;5033684;28;20077;-48
2021/03/14 01:36:39;;;;;;;2.10;0.50;;;;;;;2.10;86.32;94624.84;5033636;28;20050;-48
2021/03/14 01:39:06;;;;;;;0.70;0.40;;;;;;;2.05;86.74;94643.69;5017139;28;20065;-47
2021/03/14 01:41:33;;;;;;;0.17;0.17;;;;;;;1.91;86.83;94639.53;5013223;28;20133;-45
2021/03/14 01:44:00;;;;;;;1.42;0.38;;;;;;;1.83;87.66;94635.75;5017990;28;20050;-46
2021/03/14 01:46:27;;;;;;;0.57;0.22;;;;;;;1.72;87.75;94613.88;5023089;28;20696;-50
2021/03/14 01:49:13;;;;;;;0.17;0.17;;;;;;;1.64;88.46;94617.31;5033127;28;20159;-48
2021/03/14 01:51:40;;;;;;;0.90;0.38;;;;;;;1.72;88.95;94607.78;5032880;28;20115;-45
2021/03/14 01:54:08;;;;;;;0.30;0.28;;;;;;;1.86;88.22;94608.47;5033147;28;20053;-45
2021/03/14 01:56:36;;;;;;;0.15;0.10;;;;;;;1.77;87.99;94611.09;5033429;28;20072;-47
2021/03/14 01:59:04;;;;;;;1.98;0.30;;;;;;;1.86;87.94;94603.13;5018430;28;20049;-50
2021/03/14 02:01:31;;;;;;;0.40;0.40;;;;;;;1.86;88.12;94611.13;5032318;28;20216;-45
2021/03/14 02:03:58;;;;;;;0.47;0.32;;;;;;;1.87;88.06;94615.38;5033147;28;20081;-46
2021/03/14 02:06:26;;;;;;;0.52;0.30;;;;;;;1.89;87.98;94615.84;5032845;28;20045;-46
2021/03/14 02:08:53;;;;;;;0.20;0.17;;;;;;;1.86;87.67;94619.13;5016767;28;20050;-46
2021/03/14 02:11:24;;;;;;;0.95;0.30;;;;;;;1.97;88.44;94619.63;5012653;28;20101;-46
2021/03/14 02:13:53;;;;;;;0.20;0.20;;;;;;;1.98;87.91;94632.69;5013852;28;20065;-46
2021/03/14 02:16:22;;;;;;;1.55;0.38;;;;;;;2.01;87.81;94628.59;5014549;28;20054;-45
2021/03/14 02:18:55;;;;;;;0.20;0.20;;;;;;;1.90;86.95;94619.31;5012888;28;20061;-46
2021/03/14 02:21:22;;;;;;;0.40;0.20;;;;;;;1.89;87.20;94642.53;5025605;28;20073;-48
2021/03/14 02:23:57;;;;;;;4.18;1.30;;;;;;;1.89;86.91;94631.84;5032445;28;20128;-46
2021/03/14 02:26:25;;;;;;;0.38;0.22;;;;;;;1.95;86.90;94638.63;5032419;28;20128;-48
2021/03/14 02:28:54;;;;;;;1.08;0.40;;;;;;;1.98;86.90;94638.00;5031815;28;20058;-47
2021/03/14 02:31:23;;;;;;;0.63;0.20;;;;;;;1.95;86.16;94641.28;5031908;28;20118;-48
2021/03/14 02:33:58;;;;;;;0.47;0.30;;;;;;;2.06;87.14;94639.91;5032201;28;20083;-46
2021/03/14 02:36:37;;;;;;;0.38;0.15;;;;;;;1.99;86.35;94638.78;5033912;28;20061;-47
2021/03/14 02:39:14;;;;;;;0.30;0.30;;;;;;;2.06;86.71;94629.22;5031171;28;20053;-50
2021/03/14 02:41:42;;;;;;;0.45;0.17;;;;;;;1.95;86.62;94643.16;5032774;28;20092;-45
2021/03/14 02:44:13;;;;;;;0.30;0.20;;;;;;;1.97;86.65;94641.75;5030983;28;20222;-50
2021/03/14 02:46:43;;;;;;;0.17;0.17;;;;;;;1.92;86.25;94641.91;5027404;28;20089;-49
2021/03/14 02:49:11;;;;;;;0.13;0.13;;;;;;;2.02;86.90;94636.28;5012159;28;20046;-49
2021/03/14 02:51:40;;;;;;;0.30;0.13;;;;;;;1.98;86.33;94647.88;5012765;28;20083;-52
2021/03/14 02:54:07;;;;;;;0.73;0.20;;;;;;;1.97;86.01;94638.31;5012460;28;20466;-47
2021/03/14 02:56:34;;;;;;;0.28;0.20;;;;;;;2.08;86.12;94637.72;5013145;28;20113;-47
2021/03/14 02:59:03;;;;;;;0.35;0.20;;;;;;;2.08;85.37;94652.91;5012387;28;20054;-47
2021/03/14 03:01:33;;;;;;;0.85;0.20;;;;;;;2.06;84.96;94650.56;5012284;28;20070;-47
2021/03/14 03:04:01;;;;;;;0.10;0.10;;;;;;;2.13;85.07;94649.34;5012101;28;20097;-48
2021/03/14 03:06:30;;;;;;;0.10;0.10;;;;;;;2.22;84.78;94645.59;5012305;28;20046;-47
2021/03/14 03:08:56;;;;;;;0.35;0.20;;;;;;;2.20;84.16;94658.47;5014721;28;20077;-47
2021/03/14 03:11:23;;;;;;;1.23;0.13;;;;;;;2.25;84.08;94650.31;5031190;28;20049;-47
2021/03/14 03:13:52;;;;;;;0.30;0.10;;;;;;;2.26;83.68;94659.09;5031013;28;20099;-46
2021/03/14 03:16:23;;;;;;;0.55;0.20;;;;;;;2.34;83.92;94663.69;5031528;28;20096;-48
2021/03/14 03:18:51;;;;;;;0.10;0.10;;;;;;;2.30;83.61;94654.72;5028364;28;20069;-47
2021/03/14 03:21:22;;;;;;;0.10;0.10;;;;;;;2.28;83.17;94663.03;5019382;28;20116;-51
2021/03/14 03:23:49;;;;;;;0.20;0.20;;;;;;;2.31;83.09;94672.31;5011801;28;20050;-45
2021/03/14 03:26:16;;;;;;;0.15;0.00;;;;;;;2.33;83.63;94670.09;5012202;28;20042;-45
2021/03/14 03:28:43;;;;;;;1.20;0.20;;;;;;;2.32;83.28;94671.22;5020940;28;20084;-46
2021/03/14 03:31:11;;;;;;;0.10;0.10;;;;;;;2.44;84.05;94666.06;5030893;28;20503;-45
2021/03/14 03:33:37;;;;;;;0.40;0.10;;;;;;;2.27;83.64;94671.34;5031236;28;20057;-46
2021/03/14 03:36:04;;;;;;;0.20;0.20;;;;;;;2.27;83.64;94677.47;5031368;28;20107;-44
2021/03/14 03:38:33;;;;;;;0.22;0.20;;;;;;;2.23;84.23;94684.53;5015726;28;20054;-47
2021/03/14 03:41:00;;;;;;;0.13;0.13;;;;;;;2.19;84.44;94685.47;5011452;28;20100;-49
2021/03/14 03:43:35;;;;;;;0.20;0.20;;;;;;;2.17;84.56;94683.09;5016537;28;20124;-45
2021/03/14 03:46:08;;;;;;;0.20;0.20;;;;;;;2.20;84.68;94690.47;5030704;28;20107;-45
2021/03/14 03:48:44;;;;;;;0.30;0.10;;;;;;;2.27;84.47;94695.38;5030717;28;20057;-44
2021/03/14 03:51:19;;;;;;;0.20;0.20;;;;;;;2.22;84.00;94704.31;5030411;28;20056;-45
2021/03/14 03:53:46;;;;;;;0.22;0.20;;;;;;;2.22;84.83;94712.31;5030998;28;20491;-48
2021/03/14 03:56:13;;;;;;;0.30;0.10;;;;;;;2.20;84.38;94708.38;5029542;28;20045;-47
2021/03/14 03:58:41;;;;;;;0.10;0.10;;;;;;;2.21;83.85;94702.75;5031140;28;20045;-45
2021/03/14 04:01:10;;;;;;;1.55;0.43;;;;;;;2.18;83.58;94703.38;5014766;28;20052;-46
2021/03/14 04:03:43;;;;;;;0.32;0.03;;;;;;;2.23;83.40;94711.22;5010989;28;20053;-46
2021/03/14 04:06:12;;;;;;;0.20;0.20;;;;;;;2.26;82.96;94712.47;5011138;28;20112;-47
2021/03/14 04:08:43;;;;;;;0.10;0.10;;;;;;;2.22;83.57;94711.53;5009907;28;20322;-47
2021/03/14 04:11:13;;;;;;;0.52;0.15;;;;;;;2.18;83.21;94729.22;5027222;28;20041;-50
2021/03/14 04:13:42;;;;;;;0.20;0.20;;;;;;;2.16;83.95;94736.78;5030756;28;20574;-46
2021/03/14 04:16:11;;;;;;;0.10;0.10;;;;;;;2.17;83.63;94725.00;5030759;28;20057;-47
2021/03/14 04:18:39;;;;;;;0.10;0.10;;;;;;;2.11;83.63;94737.69;5030294;28;20056;-45
2021/03/14 04:21:14;;;;;;;0.38;0.20;;;;;;;2.22;84.02;94748.91;5029704;28;20049;-44
2021/03/14 04:23:43;;;;;;;0.43;0.28;;;;;;;2.18;83.55;94747.91;5030413;28;20490;-46
2021/03/14 04:26:11;;;;;;;0.25;0.20;;;;;;;2.22;83.93;94748.91;5034188;28;20515;-46
2021/03/14 04:28:41;;;;;;;0.20;0.20;;;;;;;2.20;83.51;94746.53;5034304;28;20103;-47
2021/03/14 04:31:08;;;;;;;0.10;0.10;;;;;;;2.24;83.75;94758.19;5029837;28;20077;-45
2021/03/14 04:33:36;;;;;;;0.05;0.05;;;;;;;2.21;83.48;94761.47;5015455;28;20396;-49
2021/03/14 04:36:04;;;;;;;0.10;0.10;;;;;;;2.18;83.45;94763.91;5015622;28;20103;-48
2021/03/14 04:38:31;;;;;;;0.10;0.10;;;;;;;2.19;84.09;94770.84;5016082;28;20050;-46
2021/03/14 04:40:58;;;;;;;0.10;0.10;;;;;;;2.10;84.10;94774.25;5015029;28;20500;-49
2021/03/14 04:43:26;;;;;;;0.05;0.03;;;;;;;2.05;84.54;94782.41;5013840;28;20100;-48
2021/03/14 04:45:53;;;;;;;0.38;0.17;;;;;;;2.00;85.17;94795.88;5014948;28;20084;-47
2021/03/14 04:48:21;;;;;;;0.20;0.20;;;;;;;1.87;85.91;94804.72;5024072;28;20210;-44
2021/03/14 04:50:50;;;;;;;0.10;0.10;;;;;;;1.50;87.44;94828.00;5033583;28;20047;-45
2021/03/14 04:53:19;;;;;;;1.25;0.20;;;;;;;1.05;88.12;94849.22;5033289;28;20107;-46
2021/03/14 04:55:48;;;;;;;0.28;0.20;;;;;;;0.87;88.48;94850.09;5034476;28;20128;-46
2021/03/14 04:58:17;;;;;;;0.20;0.20;;;;;;;0.66;89.48;94845.19;5033439;28;20433;-48
2021/03/14 05:00:45;;;;;;;1.25;0.40;;;;;;;0.69;89.59;94854.47;5033589;28;20079;-50
2021/03/14 05:03:14;;;;;;;0.28;0.20;;;;;;;0.50;90.17;94861.75;5034061;28;20053;-47
2021/03/14 05:05:44;;;;;;;0.20;0.20;;;;;;;0.50;90.49;94859.88;5029557;28;20057;-48
2021/03/14 05:08:19;;;;;;;0.20;0.20;;;;;;;0.39;90.64;94861.94;5024629;28;20053;-50
2021/03/14 05:10:47;;;;;;;0.57;0.30;;;;;;;0.43;90.61;94867.47;5031906;28;20073;-49
2021/03/14 05:13:14;;;;;;;0.88;0.30;;;;;;;0.58;90.48;94867.16;5016080;28;20049;-50
2021/03/14 05:15:41;;;;;;;0.20;0.20;;;;;;;0.49;90.21;94868.13;5033721;28;20638;-48
2021/03/14 05:18:11;;;;;;;1.10;0.40;;;;;;;0.57;90.44;94862.94;5020387;28;20070;-49
2021/03/14 05:20:39;;;;;;;0.85;0.40;;;;;;;0.59;89.92;94873.28;5014019;28;20096;-50
2021/03/14 05:23:07;;;;;;;0.45;0.45;;;;;;;0.55;90.15;94889.03;5013873;28;20132;-50
2021/03/14 05:25:34;;;;;;;0.28;0.28;;;;;;;0.61;90.48;94889.75;5013631;28;20087;-48
2021/03/14 05:28:02;;;;;;;0.30;0.30;;;;;;;0.61;89.99;94895.84;5017640;28;20049;-47
2021/03/14 05:30:32;;;;;;;0.65;0.30;;;;;;;0.70;89.41;94899.41;5032521;28;20096;-47
2021/03/14 05:32:58;;;;;;;0.45;0.40;;;;;;;0.62;89.46;94902.00;5033339;28;20569;-50
2021/03/14 05:35:27;;;;;;;0.43;0.25;;;;;;;0.64;89.42;94908.56;5033166;28;20079;-49
2021/03/14 05:37:55;;;;;;;0.30;0.20;;;;;;;0.74;89.39;94925.44;5032277;28;20050;-49
2021/03/14 05:40:24;;;;;;;0.45;0.30;;;;;;;0.77;89.31;94930.97;5032686;28;20486;-46
2021/03/14 05:42:51;;;;;;;0.22;0.22;;;;;;;0.77;89.08;94930.19;5032951;28;20525;-48
2021/03/14 05:45:18;;;;;;;0.20;0.20;;;;;;;0.80;89.18;94929.59;5032682;28;20073;-46
2021/03/14 05:47:46;;;;;;;0.22;0.22;;;;;;;0.79;89.12;94936.03;5032907;28;20060;-49
2021/03/14 05:50:17;;;;;;;0.20;0.20;;;;;;;0.78;89.09;94947.72;5032129;28;20053;-47
2021/03/14 05:52:44;;;;;;;0.95;0.40;;;;;;;0.72;89.57;94932.97;5032705;28;20057;-48
2021/03/14 05:55:17;;;;;;;0.80;0.60;;;;;;;0.76;89.31;94944.59;5033210;28;20108;-48
2021/03/14 05:57:45;;;;;;;0.45;0.45;;;;;;;0.81;89.38;94941.81;5032723;28;20080;-48
2021/03/14 06:00:22;;;;;;;2.22;0.70;;;;;;;0.82;89.33;94940.75;5032334;28;20103;-48
2021/03/14 06:02:58;;;;;;;0.90;0.60;;;;;;;0.73;89.42;94934.53;5032815;28;20071;-48
2021/03/14 06:05:31;;;;;;;0.57;0.40;;;;;;;0.61;89.12;94948.31;5033087;28;20491;-47
2021/03/14 06:07:59;;;;;;;2.92;1.05;;;;;;;0.72;88.75;94930.31;5032671;28;20093;-48
2021/03/14 06:10:26;;;;;;;2.65;0.77;;;;;;;0.86;88.52;94934.53;5031828;28;20053;-49
2021/03/14 06:12:52;;;;;;;1.17;0.60;;;;;;;0.87;88.03;94941.44;5032475;28;20072;-52
2021/03/14 06:15:19;;;;;;;0.90;0.65;;;;;;;0.92;88.18;94941.34;5032625;28;20402;-48
2021/03/14 06:17:45;;;;;;;1.65;0.55;;;;;;;0.94;87.95;94941.03;5031938;28;20057;-48
2021/03/14 06:20:43;;;;;;;3.83;0.80;;;;;;;0.98;87.64;94928.75;5028956;28;20133;-48
2021/03/14 06:23:11;;;;;;;2.35;0.60;;;;;;;1.04;87.87;94924.91;5012914;28;20532;-47
2021/03/14 06:25:41;;;;;;;1.02;0.50;;;;;;;1.01;87.87;94927.34;5013012;28;20053;-52
2021/03/14 06:28:07;;;;;;;1.75;0.60;;;;;;;1.07;88.12;94939.47;5017429;28;20049;-48
2021/03/14 06:30:35;;;;;;;0.45;0.40;;;;;;;0.99;88.37;94943.63;5031569;28;20045;-49
2021/03/14 06:33:16;;;;;;;0.63;0.50;;;;;;;1.12;87.50;94942.06;5032461;28;20479;-49
2021/03/14 06:35:54;;;;;;;0.32;0.32;;;;;;;1.13;87.04;94957.72;5032143;28;20053;-48
2021/03/14 06:38:32;;;;;;;0.93;0.52;;;;;;;1.21;87.02;94966.13;5032236;28;20104;-47
2021/03/14 06:41:04;;;;;;;0.93;0.30;;;;;;;1.19;86.32;94969.09;5013261;28;20132;-49
2021/03/14 06:43:50;;;;;;;0.50;0.50;;;;;;;1.25;86.36;94975.09;5012368;28;20066;-49
2021/03/14 06:46:27;;;;;;;0.45;0.40;;;;;;;1.26;85.97;94990.78;5012072;28;20515;-53
2021/03/14 06:49:20;;;;;;;0.40;0.40;;;;;;;1.31;85.90;94997.91;5020832;28;20057;-51
2021/03/14 06:51:56;;;;;;;0.40;0.40;;;;;;;1.28;85.72;95006.50;5015356;28;20054;-51
2021/03/14 06:54:25;;;;;;;0.63;0.50;;;;;;;1.42;85.88;94998.50;5012222;28;20499;-48
2021/03/14 06:57:07;;;;;;;0.30;0.30;;;;;;;1.68;84.81;95012.09;5011857;28;20100;-49
2021/03/14 06:59:36;;;;;;;1.27;0.50;;;;;;;1.59;84.77;95006.66;5011624;28;20530;-48
2021/03/14 07:02:10;;;;;;;1.00;0.47;;;;;;;1.57;84.83;95009.66;5012332;28;20487;-47
2021/03/14 07:05:00;;;;;;;0.28;0.28;;;;;;;1.58;85.62;95010.44;5010915;28;20148;-49
2021/03/14 07:07:31;;;;;;;0.50;0.40;;;;;;;1.61;85.61;95018.63;5011963;28;20054;-50
2021/03/14 07:10:05;;;;;;;1.23;0.50;;;;;;;1.71;86.22;95011.50;5026188;28;20061;-53
2021/03/14 07:12:34;;;;;;;0.43;0.35;;;;;;;1.48;86.46;95023.97;5031392;28;20046;-52
2021/03/14 07:15:19;;;;;;;0.70;0.50;;;;;;;1.52;86.34;95019.63;5031459;28;20533;-52
2021/03/14 07:17:57;;;;;;;0.30;0.30;;;;;;;1.30;86.58;95023.78;5031614;28;20057;-47
2021/03/14 07:20:28;;;;;;;0.52;0.47;;;;;;;1.21;87.22;95041.53;5029023;28;20052;-47
2021/03/14 07:23:06;;;;;;;0.35;0.35;;;;;;;1.34;87.26;95043.41;5027573;28;20475;-47
2021/03/14 07:25:39;;;;;;;0.40;0.40;;;;;;;1.34;87.59;95046.06;5011351;28;20123;-46
2021/03/14 07:28:06;;;;;;;0.35;0.30;;;;;;;1.19;87.91;95058.88;5016395;28;20053;-48
2021/03/14 07:30:33;;;;;;;1.02;0.57;;;;;;;1.17;88.08;95080.50;5025446;28;20054;-50
2021/03/14 07:32:59;;;;;;;1.45;0.50;;;;;;;1.01;88.23;95079.97;5011338;28;20081;-49
2021/03/14 07:35:27;;;;;;;0.55;0.55;;;;;;;1.09;88.39;95081.94;5011062;28;20396;-51
2021/03/14 07:37:56;;;;;;;0.30;0.20;;;;;;;1.06;87.17;95092.41;5011881;28;20120;-49
2021/03/14 07:40:25;;;;;;;0.40;0.40;;;;;;;1.04;87.76;95090.03;5009695;28;20054;-51
2021/03/14 07:42:57;;;;;;;0.45;0.43;;;;;;;1.13;88.36;95093.59;5009942;28;20085;-50
2021/03/14 07:45:24;;;;;;;0.40;0.40;;;;;;;1.09;88.31;95097.94;5011681;28;20046;-51
2021/03/14 07:47:52;;;;;;;0.40;0.40;;;;;;;1.28;88.18;95111.22;5011351;28;20054;-49
2021/03/14 07:50:23;;;;;;;0.30;0.30;;;;;;;1.13;88.03;95106.91;5015259;28;20407;-48
2021/03/14 07:52:53;;;;;;;0.55;0.32;;;;;;;1.08;87.88;95123.00;5030903;28;20103;-51
2021/03/14 07:55:21;;;;;;;0.50;0.38;;;;;;;0.94;88.65;95122.16;5030711;28;20534;-49
2021/03/14 07:57:51;;;;;;;0.50;0.50;;;;;;;1.08;88.70;95141.66;5030854;28;20120;-49
2021/03/14 08:00:23;;;;;;;0.40;0.30;;;;;;;0.99;87.63;95143.38;5029973;28;20406;-49
2021/03/14 08:02:55;;;;;;;2.38;0.40;;;;;;;0.67;89.02;95155.56;5030915;28;20054;-48
2021/03/14 08:05:37;;;;;;;0.90;0.47;;;;;;;0.70;89.06;95151.53;5030784;28;20132;-49
2021/03/14 08:08:05;;;;;;;0.32;0.20;;;;;;;0.61;89.54;95155.94;5018591;28;20420;-50
2021/03/14 08:10:37;;;;;;;0.50;0.50;;;;;;;0.82;89.50;95164.44;5021515;28;20057;-48
2021/03/14 08:13:05;;;;;;;2.33;0.70;;;;;;;0.87;89.68;95159.81;5011159;28;20062;-50
2021/03/14 08:15:34;;;;;;;3.13;0.65;;;;;;;1.05;88.58;95171.53;5011124;28;20137;-52
2021/03/14 08:18:03;;;;;;;1.10;0.45;;;;;;;0.73;89.09;95179.47;5011404;28;20057;-47
2021/03/14 08:20:39;;;;;;;1.70;0.60;;;;;;;0.64;89.16;95172.13;5016287;28;20364;-49
2021/03/14 08:23:12;;;;;;;1.48;0.60;;;;;;;0.91;89.48;95186.66;5029214;28;20053;-50
2021/03/14 08:25:41;;;;;;;2.10;0.50;;;;;;;0.96;88.93;95189.25;5029679;28;20053;-48
2021/03/14 08:28:28;;;;;;;0.55;0.50;;;;;;;0.86;89.01;95186.75;5021748;28;20073;-48
2021/03/14 08:31:02;;;;;;;2.50;0.50;;;;;;;0.76;89.30;95194.88;5019954;28;20045;-48
2021/03/14 08:33:48;;;;;;;1.10;0.70;;;;;;;1.05;88.95;95186.72;5029417;28;20388;-47
2021/03/14 08:36:33;;;;;;;2.42;1.08;;;;;;;0.91;88.95;95189.31;5027492;28;20088;-49
2021/03/14 08:39:07;;;;;;;1.83;0.70;;;;;;;1.05;89.12;95186.72;5002837;28;20112;-48
2021/03/14 08:41:57;;;;;;;1.02;0.60;;;;;;;1.04;88.96;95187.78;5015194;28;20042;-47
2021/03/14 08:44:32;;;;;;;1.38;0.90;;;;;;;1.06;89.31;95193.63;5011897;28;20476;-50
2021/03/14 08:47:13;;;;;;;1.08;0.70;;;;;;;1.05;89.13;95192.06;5019449;28;20136;-52
2021/03/14 08:49:49;;;;;;;1.00;0.60;;;;;;;1.06;89.24;95188.31;5036252;28;20073;-49
2021/03/14 08:52:20;;;;;;;2.00;0.82;;;;;;;1.02;89.25;95190.75;5025729;28;20527;-48
2021/03/14 08:54:58;;;;;;;1.17;0.70;;;;;;;1.10;89.31;95195.41;5025238;28;20499;-50
2021/03/14 08:57:28;;;;;;;1.77;0.90;;;;;;;1.40;88.65;95194.16;5029042;28;20132;-51
2021/03/14 09:00:00;;;;;;;1.73;1.10;;;;;;;1.17;88.60;95189.75;5028232;28;20060;-48
2021/03/14 09:02:32;;;;;;;1.00;0.70;;;;;;;1.14;88.76;95198.31;5028918;28;20065;-51
2021/03/14 09:05:12;;;;;;;1.88;0.82;;;;;;;1.36;88.80;95197.69;5029501;28;20068;-47
2021/03/14 09:08:00;;;;;;;2.22;0.80;;;;;;;1.51;86.76;95202.78;5010459;28;20419;-50
2021/03/14 09:10:35;;;;;;;1.85;1.00;;;;;;;1.53;87.36;95199.84;5015694;28;20145;-52
2021/03/14 09:13:10;;;;;;;1.40;0.75;;;;;;;1.69;85.81;95206.47;5012307;28;20389;-50
2021/03/14 09:15:57;;;;;;;1.58;0.93;;;;;;;1.73;85.89;95196.03;5025649;28;20132;-48
2021/03/14 09:18:29;;;;;;;4.07;1.38;;;;;;;1.76;84.40;95196.22;5032260;28;20129;-50
2021/03/14 09:21:09;;;;;;;1.75;0.90;;;;;;;2.04;83.60;95197.03;5019594;28;20496;-52
2021/03/14 09:23:43;;;;;;;2.42;0.90;;;;;;;2.27;82.92;95205.13;5016086;28;20453;-50
2021/03/14 09:26:26;;;;;;;2.25;1.20;;;;;;;2.25;81.89;95207.34;5051962;23;20099;-51
2021/03/14 09:28:54;;;;;;;2.50;1.15;;;;;;;2.22;81.62;95216.72;5051501;28;20055;-54
2021/03/14 09:31:21;;;;;;;1.77;1.00;;;;;;;2.27;81.73;95211.25;5051723;28;20136;-56
2021/03/14 09:33:55;;;;;;;3.28;0.80;;;;;;;2.29;80.22;95217.09;5069046;28;20048;-52
2021/03/14 09:36:27;;;;;;;3.40;1.20;;;;;;;2.45;80.68;95209.59;5051754;28;20076;-54
2021/03/14 09:39:00;;;;;;;3.25;1.05;;;;;;;2.75;79.84;95207.38;5052325;28;20365;-54
2021/03/14 09:41:45;;;;;;;4.13;1.23;;;;;;;2.61;79.28;95212.75;5053354;28;20056;-53
2021/03/14 09:44:40;;;;;;;5.30;1.10;;;;;;;2.99;79.32;95209.78;5040448;28;20072;-50
2021/03/14 09:47:13;;;;;;;3.27;1.10;;;;;;;2.90;78.53;95203.59;5027460;28;20723;-50
2021/03/14 09:50:08;;;;;;;2.72;1.05;;;;;;;2.84;78.07;95207.47;5048853;28;20128;-55
2021/03/14 09:52:47;;;;;;;3.53;1.38;;;;;;;3.11;77.07;95201.25;5048268;28;20148;-51
2021/03/14 09:55:37;;;;;;;1.38;0.85;;;;;;;3.05;76.17;95208.56;5041432;28;20049;-49
2021/03/14 09:58:08;;;;;;;1.92;1.10;;;;;;;3.07;76.04;95211.75;5046962;28;20132;-52
2021/03/14 10:00:36;;;;;;;2.67;0.85;;;;;;;3.39;75.49;95212.63;5051636;28;20049;-48
2021/03/14 10:03:09;;;;;;;3.13;1.17;;;;;;;2.91;76.74;95213.97;5045560;28;20049;-56
2021/03/14 10:05:47;;;;;;;4.57;1.40;;;;;;;2.94;76.70;95212.59;5052439;28;20657;-46
2021/03/14 10:08:21;;;;;;;3.50;1.25;;;;;;;2.98;75.93;95206.31;5049706;28;20437;-52
2021/03/14 10:10:50;;;;;;;1.45;0.88;;;;;;;2.69;77.15;95204.00;5052510;28;20502;-50
2021/03/14 10:13:25;;;;;;;3.03;1.00;;;;;;;2.58;77.72;95211.44;5050394;28;20053;-50
2021/03/14 10:15:54;;;;;;;2.63;1.25;;;;;;;2.53;78.92;95208.88;5054857;28;20059;-57
2021/03/14 10:18:24;;;;;;;2.40;1.20;;;;;;;2.61;79.33;95217.28;5066811;28;20053;-55
2021/03/14 10:21:12;;;;;;;3.00;1.38;;;;;;;2.72;79.16;95227.44;5062365;28;20041;-55
2021/03/14 10:23:39;;;;;;;2.65;1.20;;;;;;;2.88;79.57;95213.78;5066831;28;20517;-48
2021/03/14 10:26:31;;;;;;;2.50;1.20;;;;;;;2.88;78.50;95225.25;5052140;28;20041;-54
2021/03/14 10:29:14;;;;;;;2.15;1.13;;;;;;;3.17;78.33;95222.19;5050206;28;20136;-58
2021/03/14 10:32:44;;;;;;;2.17;1.00;;;;;;;3.17;77.38;95232.13;5045221;28;20501;-56
2021/03/14 10:35:15;;;;;;;2.63;1.00;;;;;;;3.10;77.56;95237.88;5023528;28;20506;-50
2021/03/14 10:37:43;;;;;;;3.28;1.50;;;;;;;2.85;78.59;95241.88;5028635;28;20070;-51
2021/03/14 10:40:21;;;;;;;2.00;1.10;;;;;;;3.22;77.97;95234.69;5043028;28;20037;-55
2021/03/14 10:42:52;;;;;;;3.00;1.33;;;;;;;3.44;75.73;95236.56;5063059;28;20536;-50
2021/03/14 10:45:33;;;;;;;2.65;1.05;;;;;;;3.16;73.71;95243.91;5049983;28;20063;-49
2021/03/14 10:48:05;;;;;;;4.38;1.50;;;;;;;3.48;73.97;95249.03;5051686;28;20140;-52
2021/03/14 10:50:37;;;;;;;3.70;0.90;;;;;;;3.17;73.07;95248.94;5043599;28;20102;-55
2021/03/14 10:53:19;;;;;;;2.92;1.20;;;;;;;3.67;73.89;95240.84;5033270;28;20041;-51
2021/03/14 10:56:08;;;;;;;2.03;1.00;;;;;;;3.47;71.50;95239.41;5049080;28;20083;-55
2021/03/14 10:58:44;;;;;;;2.67;0.90;;;;;;;3.21;71.92;95249.13;5043651;28;20422;-55
2021/03/14 11:01:57;;;;;;;3.85;1.40;;;;;;;3.25;73.62;95234.88;5046780;28;20170;-55
2021/03/14 11:04:30;;;;;;;1.85;1.00;;;;;;;3.28;73.20;95239.59;5046101;28;20048;-56
2021/03/14 11:07:27;;;;;;;3.22;1.40;;;;;;;3.32;73.96;95247.81;5059556;28;20063;-55
2021/03/14 11:10:12;;;;;;;1.63;0.90;;;;;;;3.07;74.43;95251.84;5063558;28;20056;-58
2021/03/14 11:12:48;;;;;;;2.20;1.10;;;;;;;3.12;74.02;95251.75;5035638;28;20057;-53
2021/03/14 11:15:44;;;;;;;3.88;1.10;;;;;;;3.16;74.44;95250.03;5035643;28;20141;-57
2021/03/14 11:18:23;;;;;;;3.03;1.13;;;;;;;3.62;73.30;95242.84;5045132;28;20072;-55
2021/03/14 11:21:12;;;;;;;2.53;1.10;;;;;;;3.43;73.74;95238.44;5045875;28;20040;-56
2021/03/14 11:23:42;;;;;;;3.92;1.25;;;;;;;3.83;74.13;95237.75;5048219;28;20057;-56
2021/03/14 11:26:26;;;;;;;1.58;0.95;;;;;;;4.76;71.40;95229.66;5044145;28;20057;-59
2021/03/14 11:28:53;;;;;;;3.33;0.82;;;;;;;5.24;68.51;95225.31;5045067;28;20136;-53
2021/03/14 11:31:29;;;;;;;3.97;1.20;;;;;;;5.54;68.83;95218.19;5041672;28;20168;-50
2021/03/14 11:33:59;;;;;;;2.55;1.08;;;;;;;5.11;62.95;95229.72;5044200;28;20527;-50
2021/03/14 11:36:33;;;;;;;1.42;0.82;;;;;;;4.67;62.81;95220.78;5044537;28;20394;-50
2021/03/14 11:39:13;;;;;;;2.47;0.98;;;;;;;5.21;60.45;95215.22;5046342;28;20045;-50
2021/03/14 11:41:46;;;;;;;0.73;0.57;;;;;;;5.14;60.53;95232.56;5050388;28;20037;-50
2021/03/14 11:44:43;;;;;;;2.28;0.70;;;;;;;5.09;58.72;95221.19;5044868;28;20060;-55
2021/03/14 11:47:09;;;;;;;3.88;0.82;;;;;;;5.23;58.43;95240.63;5044716;28;20136;-53
2021/03/14 11:49:45;;;;;;;3.08;1.10;;;;;;;5.52;59.24;95233.81;5055247;28;20259;-57
2021/03/14 11:52:11;;;;;;;3.15;0.93;;;;;;;5.53;58.02;95238.88;5046794;28;20067;-57
2021/03/14 11:54:41;;;;;;;4.95;0.85;;;;;;;5.80;58.45;95229.69;5043866;28;20053;-51
2021/03/14 11:57:10;;;;;;;1.67;0.85;;;;;;;4.90;59.99;95237.56;5045446;28;20037;-51
2021/03/14 11:59:42;;;;;;;1.35;0.70;;;;;;;5.02;61.56;95232.38;5045684;28;20049;-56
2021/03/14 12:02:10;;;;;;;3.58;1.48;;;;;;;4.49;65.12;95229.91;5047341;28;20049;-55
2021/03/14 12:04:56;;;;;;;2.50;0.95;;;;;;;4.40;68.49;95227.19;5045710;28;20044;-53